sensor_id;sensor_type;location;lat;lon;timestamp;temperature;humidity
1806;DHT22;901;48.142;11.516;2022-07-23T00:00:08;24.80;99.90
1806;DHT22;901;48.142;11.516;2022-07-23T00:02:35;24.80;99.90
1806;DHT22;901;48.142;11.516;2022-07-23T00:05:02;24.70;99.90
1806;DHT22;901;48.142;11.516;2022-07-23T00:07:29;24.60;99.90
1806;DHT22;901;48.142;11.516;2022-07-23T00:09:57;24.60;99.90
1806;DHT22;901;48.142;11.516;2022-07-23T00:12:24;24.60;99.90
1806;DHT22;901;48.142;11.516;2022-07-23T00:14:51;24.50;99.90
1806;DHT22;901;48.142;11.516;2022-07-23T00:17:18;24.50;99.90
1806;DHT22;901;48.142;11.516;2022-07-23T00:19:46;24.40;99.90
1806;DHT22;901;48.142;11.516;2022-07-23T00:22:13;24.40;99.90
1806;DHT22;901;48.142;11.516;2022-07-23T00:24:40;24.40;99.90
1806;DHT22;901;48.142;11.516;2022-07-23T00:27:08;24.30;99.90
1806;DHT22;901;48.142;11.516;2022-07-23T00:29:35;24.40;99.90
1806;DHT22;901;48.142;11.516;2022-07-23T00:32:02;24.40;99.90
1806;DHT22;901;48.142;11.516;2022-07-23T00:34:29;24.40;99.90
1806;DHT22;901;48.142;11.516;2022-07-23T00:36:56;24.30;99.90
1806;DHT22;901;48.142;11.516;2022-07-23T00:39:23;24.30;99.90
1806;DHT22;901;48.142;11.516;2022-07-23T00:41:50;24.30;99.90
1806;DHT22;901;48.142;11.516;2022-07-23T00:44:20;24.30;99.90
1806;DHT22;901;48.142;11.516;2022-07-23T00:46:49;24.30;99.90
1806;DHT22;901;48.142;11.516;2022-07-23T00:49:18;24.20;99.90
1806;DHT22;901;48.142;11.516;2022-07-23T00:51:46;24.20;99.90
1806;DHT22;901;48.142;11.516;2022-07-23T00:54:13;24.20;99.90
1806;DHT22;901;48.142;11.516;2022-07-23T00:56:41;24.20;99.90
1806;DHT22;901;48.142;11.516;2022-07-23T00:59:08;24.10;99.90
1806;DHT22;901;48.142;11.516;2022-07-23T01:01:37;24.10;99.90
1806;DHT22;901;48.142;11.516;2022-07-23T01:04:04;24.10;99.90
1806;DHT22;901;48.142;11.516;2022-07-23T01:06:34;24.10;99.90
1806;DHT22;901;48.142;11.516;2022-07-23T01:09:03;24.10;99.90
1806;DHT22;901;48.142;11.516;2022-07-23T01:11:31;24.10;99.90
1806;DHT22;901;48.142;11.516;2022-07-23T01:13:58;24.10;99.90
1806;DHT22;901;48.142;11.516;2022-07-23T01:16:25;24.00;99.90
1806;DHT22;901;48.142;11.516;2022-07-23T01:18:53;24.00;99.90
1806;DHT22;901;48.142;11.516;2022-07-23T01:21:20;23.90;99.90
1806;DHT22;901;48.142;11.516;2022-07-23T01:23:49;23.90;99.90
1806;DHT22;901;48.142;11.516;2022-07-23T01:26:15;23.80;99.90
1806;DHT22;901;48.142;11.516;2022-07-23T01:28:43;23.70;99.90
1806;DHT22;901;48.142;11.516;2022-07-23T01:31:10;23.20;99.90
1806;DHT22;901;48.142;11.516;2022-07-23T01:33:38;22.20;99.90
1806;DHT22;901;48.142;11.516;2022-07-23T01:36:05;21.40;99.90
1806;DHT22;901;48.142;11.516;2022-07-23T01:38:32;20.90;99.90
1806;DHT22;901;48.142;11.516;2022-07-23T01:41:00;20.70;99.90
1806;DHT22;901;48.142;11.516;2022-07-23T01:43:27;20.50;99.90
1806;DHT22;901;48.142;11.516;2022-07-23T01:45:54;19.90;99.90
1806;DHT22;901;48.142;11.516;2022-07-23T01:48:21;19.30;99.90
1806;DHT22;901;48.142;11.516;2022-07-23T01:50:48;18.80;99.90
1806;DHT22;901;48.142;11.516;2022-07-23T01:53:15;18.60;99.90
1806;DHT22;901;48.142;11.516;2022-07-23T01:55:42;18.50;99.90
1806;DHT22;901;48.142;11.516;2022-07-23T01:58:10;18.40;99.90
1806;DHT22;901;48.142;11.516;2022-07-23T02:00:37;18.40;99.90
1806;DHT22;901;48.142;11.516;2022-07-23T02:03:04;18.40;99.90
1806;DHT22;901;48.142;11.516;2022-07-23T02:05:31;18.40;99.90
1806;DHT22;901;48.142;11.516;2022-07-23T02:07:58;18.40;99.90
1806;DHT22;901;48.142;11.516;2022-07-23T02:10:25;18.40;99.90
1806;DHT22;901;48.142;11.516;2022-07-23T02:12:52;18.40;99.90
1806;DHT22;901;48.142;11.516;2022-07-23T02:15:21;18.40;99.90
1806;DHT22;901;48.142;11.516;2022-07-23T02:17:47;18.50;99.90
1806;DHT22;901;48.142;11.516;2022-07-23T02:20:14;18.50;99.90
1806;DHT22;901;48.142;11.516;2022-07-23T02:22:41;18.30;99.90
1806;DHT22;901;48.142;11.516;2022-07-23T02:25:08;18.10;99.90
1806;DHT22;901;48.142;11.516;2022-07-23T02:27:35;17.90;99.90
1806;DHT22;901;48.142;11.516;2022-07-23T02:30:03;17.70;99.90
1806;DHT22;901;48.142;11.516;2022-07-23T02:32:32;17.60;99.90
1806;DHT22;901;48.142;11.516;2022-07-23T02:34:59;17.50;99.90
1806;DHT22;901;48.142;11.516;2022-07-23T02:37:26;17.50;99.90
1806;DHT22;901;48.142;11.516;2022-07-23T02:39:54;17.50;99.90
1806;DHT22;901;48.142;11.516;2022-07-23T02:42:20;17.50;99.90
1806;DHT22;901;48.142;11.516;2022-07-23T02:44:49;17.60;99.90
1806;DHT22;901;48.142;11.516;2022-07-23T02:47:16;17.60;99.90
1806;DHT22;901;48.142;11.516;2022-07-23T02:49:44;17.60;99.90
1806;DHT22;901;48.142;11.516;2022-07-23T02:52:11;17.70;99.90
1806;DHT22;901;48.142;11.516;2022-07-23T02:54:38;17.70;99.90
1806;DHT22;901;48.142;11.516;2022-07-23T02:57:05;17.70;99.90
1806;DHT22;901;48.142;11.516;2022-07-23T02:59:32;17.80;99.90
1806;DHT22;901;48.142;11.516;2022-07-23T03:01:58;18.00;99.90
1806;DHT22;901;48.142;11.516;2022-07-23T03:04:25;18.10;99.90
1806;DHT22;901;48.142;11.516;2022-07-23T03:06:53;18.20;99.90
1806;DHT22;901;48.142;11.516;2022-07-23T03:09:20;18.30;99.90
1806;DHT22;901;48.142;11.516;2022-07-23T03:11:47;18.30;99.90
1806;DHT22;901;48.142;11.516;2022-07-23T03:14:14;18.40;99.90
1806;DHT22;901;48.142;11.516;2022-07-23T03:16:41;18.40;99.90
1806;DHT22;901;48.142;11.516;2022-07-23T03:19:08;18.50;99.90
1806;DHT22;901;48.142;11.516;2022-07-23T03:21:35;18.50;99.90
1806;DHT22;901;48.142;11.516;2022-07-23T03:24:07;18.50;99.90
1806;DHT22;901;48.142;11.516;2022-07-23T03:26:34;18.50;99.90
1806;DHT22;901;48.142;11.516;2022-07-23T03:29:00;18.60;99.90
1806;DHT22;901;48.142;11.516;2022-07-23T03:31:29;18.60;99.90
1806;DHT22;901;48.142;11.516;2022-07-23T03:33:56;18.60;99.90
1806;DHT22;901;48.142;11.516;2022-07-23T03:36:23;18.70;99.90
1806;DHT22;901;48.142;11.516;2022-07-23T03:38:50;18.60;99.90
1806;DHT22;901;48.142;11.516;2022-07-23T03:41:18;18.70;99.90
1806;DHT22;901;48.142;11.516;2022-07-23T03:43:45;18.70;99.90
1806;DHT22;901;48.142;11.516;2022-07-23T03:46:12;18.70;99.90
1806;DHT22;901;48.142;11.516;2022-07-23T03:48:39;18.80;99.90
1806;DHT22;901;48.142;11.516;2022-07-23T03:51:06;18.90;99.90
1806;DHT22;901;48.142;11.516;2022-07-23T03:53:33;18.90;99.90
1806;DHT22;901;48.142;11.516;2022-07-23T03:56:00;18.90;99.90
1806;DHT22;901;48.142;11.516;2022-07-23T03:58:28;19.00;99.90
1806;DHT22;901;48.142;11.516;2022-07-23T04:00:55;19.00;99.90
1806;DHT22;901;48.142;11.516;2022-07-23T04:03:21;19.00;99.90
1806;DHT22;901;48.142;11.516;2022-07-23T04:05:48;19.10;99.90
1806;DHT22;901;48.142;11.516;2022-07-23T04:08:15;19.10;99.90
1806;DHT22;901;48.142;11.516;2022-07-23T04:10:42;19.00;99.90
1806;DHT22;901;48.142;11.516;2022-07-23T04:13:09;19.10;99.90
1806;DHT22;901;48.142;11.516;2022-07-23T04:15:37;19.10;99.90
1806;DHT22;901;48.142;11.516;2022-07-23T04:18:04;19.10;99.90
1806;DHT22;901;48.142;11.516;2022-07-23T04:20:31;19.10;99.90
1806;DHT22;901;48.142;11.516;2022-07-23T04:22:58;19.10;99.90
1806;DHT22;901;48.142;11.516;2022-07-23T04:25:25;19.20;99.90
1806;DHT22;901;48.142;11.516;2022-07-23T04:27:52;19.20;99.90
1806;DHT22;901;48.142;11.516;2022-07-23T04:30:19;19.20;99.90
1806;DHT22;901;48.142;11.516;2022-07-23T04:32:47;19.30;99.90
1806;DHT22;901;48.142;11.516;2022-07-23T04:35:15;19.30;99.90
1806;DHT22;901;48.142;11.516;2022-07-23T04:37:41;19.30;99.90
1806;DHT22;901;48.142;11.516;2022-07-23T04:40:10;19.40;99.90
1806;DHT22;901;48.142;11.516;2022-07-23T04:42:37;19.40;99.90
1806;DHT22;901;48.142;11.516;2022-07-23T04:45:04;19.50;99.90
1806;DHT22;901;48.142;11.516;2022-07-23T04:47:31;19.50;99.90
1806;DHT22;901;48.142;11.516;2022-07-23T04:49:59;19.50;99.90
1806;DHT22;901;48.142;11.516;2022-07-23T04:52:26;19.60;99.90
1806;DHT22;901;48.142;11.516;2022-07-23T04:54:53;19.60;99.90
1806;DHT22;901;48.142;11.516;2022-07-23T04:57:20;19.70;99.90
1806;DHT22;901;48.142;11.516;2022-07-23T04:59:47;19.80;99.90
1806;DHT22;901;48.142;11.516;2022-07-23T05:02:13;19.90;99.90
1806;DHT22;901;48.142;11.516;2022-07-23T05:04:40;20.00;99.90
1806;DHT22;901;48.142;11.516;2022-07-23T05:07:08;20.10;99.90
1806;DHT22;901;48.142;11.516;2022-07-23T05:09:35;20.10;99.90
1806;DHT22;901;48.142;11.516;2022-07-23T05:12:02;20.20;99.90
1806;DHT22;901;48.142;11.516;2022-07-23T05:14:29;20.20;99.90
1806;DHT22;901;48.142;11.516;2022-07-23T05:16:56;20.30;99.90
1806;DHT22;901;48.142;11.516;2022-07-23T05:19:23;20.30;99.90
1806;DHT22;901;48.142;11.516;2022-07-23T05:21:50;20.30;99.90
1806;DHT22;901;48.142;11.516;2022-07-23T05:24:19;20.40;99.90
1806;DHT22;901;48.142;11.516;2022-07-23T05:26:46;20.40;99.90
1806;DHT22;901;48.142;11.516;2022-07-23T05:29:12;20.40;99.90
1806;DHT22;901;48.142;11.516;2022-07-23T05:31:39;20.30;99.90
1806;DHT22;901;48.142;11.516;2022-07-23T05:34:06;20.40;99.90
1806;DHT22;901;48.142;11.516;2022-07-23T05:36:33;20.40;99.90
1806;DHT22;901;48.142;11.516;2022-07-23T05:39:00;20.40;99.90
1806;DHT22;901;48.142;11.516;2022-07-23T05:41:28;20.40;99.90
1806;DHT22;901;48.142;11.516;2022-07-23T05:43:55;20.40;99.90
1806;DHT22;901;48.142;11.516;2022-07-23T05:46:22;20.50;99.90
1806;DHT22;901;48.142;11.516;2022-07-23T05:48:49;20.60;99.90
1806;DHT22;901;48.142;11.516;2022-07-23T05:51:19;20.60;99.90
1806;DHT22;901;48.142;11.516;2022-07-23T05:53:46;20.70;99.90
1806;DHT22;901;48.142;11.516;2022-07-23T05:56:13;20.80;99.90
1806;DHT22;901;48.142;11.516;2022-07-23T05:58:41;20.80;99.90
1806;DHT22;901;48.142;11.516;2022-07-23T06:01:08;20.70;99.90
1806;DHT22;901;48.142;11.516;2022-07-23T06:03:37;20.70;99.90
1806;DHT22;901;48.142;11.516;2022-07-23T06:06:04;20.70;99.90
1806;DHT22;901;48.142;11.516;2022-07-23T06:08:31;20.80;99.90
1806;DHT22;901;48.142;11.516;2022-07-23T06:10:58;20.90;99.90
1806;DHT22;901;48.142;11.516;2022-07-23T06:13:25;20.90;99.90
1806;DHT22;901;48.142;11.516;2022-07-23T06:15:53;21.00;99.90
1806;DHT22;901;48.142;11.516;2022-07-23T06:18:20;21.00;99.90
1806;DHT22;901;48.142;11.516;2022-07-23T06:20:47;21.10;99.90
1806;DHT22;901;48.142;11.516;2022-07-23T06:23:14;21.20;99.90
1806;DHT22;901;48.142;11.516;2022-07-23T06:25:41;21.30;99.90
1806;DHT22;901;48.142;11.516;2022-07-23T06:28:07;21.30;99.90
1806;DHT22;901;48.142;11.516;2022-07-23T06:30:34;21.30;99.90
1806;DHT22;901;48.142;11.516;2022-07-23T06:33:03;21.40;99.90
1806;DHT22;901;48.142;11.516;2022-07-23T06:35:30;21.40;99.90
1806;DHT22;901;48.142;11.516;2022-07-23T06:37:56;21.50;99.90
1806;DHT22;901;48.142;11.516;2022-07-23T06:40:23;21.60;99.90
1806;DHT22;901;48.142;11.516;2022-07-23T06:42:50;21.80;99.90
1806;DHT22;901;48.142;11.516;2022-07-23T06:45:17;21.80;99.90
1806;DHT22;901;48.142;11.516;2022-07-23T06:47:44;21.80;99.90
1806;DHT22;901;48.142;11.516;2022-07-23T06:50:12;21.80;99.90
1806;DHT22;901;48.142;11.516;2022-07-23T06:52:39;21.80;99.90
1806;DHT22;901;48.142;11.516;2022-07-23T06:55:06;21.80;99.90
1806;DHT22;901;48.142;11.516;2022-07-23T06:57:33;21.90;99.90
1806;DHT22;901;48.142;11.516;2022-07-23T07:00:00;22.00;99.90
1806;DHT22;901;48.142;11.516;2022-07-23T07:02:27;22.10;99.90
1806;DHT22;901;48.142;11.516;2022-07-23T07:04:54;22.10;99.90
1806;DHT22;901;48.142;11.516;2022-07-23T07:07:23;22.20;99.90
1806;DHT22;901;48.142;11.516;2022-07-23T07:09:49;22.20;99.90
1806;DHT22;901;48.142;11.516;2022-07-23T07:12:16;22.30;99.90
1806;DHT22;901;48.142;11.516;2022-07-23T07:14:43;22.30;99.90
1806;DHT22;901;48.142;11.516;2022-07-23T07:17:10;22.30;99.90
1806;DHT22;901;48.142;11.516;2022-07-23T07:19:37;22.30;99.90
1806;DHT22;901;48.142;11.516;2022-07-23T07:22:04;22.30;99.90
1806;DHT22;901;48.142;11.516;2022-07-23T07:24:32;22.20;99.90
1806;DHT22;901;48.142;11.516;2022-07-23T07:26:59;22.20;99.90
1806;DHT22;901;48.142;11.516;2022-07-23T07:29:26;22.20;99.90
1806;DHT22;901;48.142;11.516;2022-07-23T07:31:53;22.20;99.90
1806;DHT22;901;48.142;11.516;2022-07-23T07:34:20;22.20;99.90
1806;DHT22;901;48.142;11.516;2022-07-23T07:36:47;22.20;99.90
1806;DHT22;901;48.142;11.516;2022-07-23T07:39:15;22.20;99.90
1806;DHT22;901;48.142;11.516;2022-07-23T07:41:43;22.30;99.90
1806;DHT22;901;48.142;11.516;2022-07-23T07:44:10;22.30;99.90
1806;DHT22;901;48.142;11.516;2022-07-23T07:46:37;22.30;99.90
1806;DHT22;901;48.142;11.516;2022-07-23T07:49:04;22.30;99.90
1806;DHT22;901;48.142;11.516;2022-07-23T07:51:31;22.30;99.90
1806;DHT22;901;48.142;11.516;2022-07-23T07:53:58;22.30;99.90
1806;DHT22;901;48.142;11.516;2022-07-23T07:56:25;22.30;99.90
1806;DHT22;901;48.142;11.516;2022-07-23T07:58:53;22.40;99.90
1806;DHT22;901;48.142;11.516;2022-07-23T08:01:20;22.50;99.90
1806;DHT22;901;48.142;11.516;2022-07-23T08:03:47;22.50;99.90
1806;DHT22;901;48.142;11.516;2022-07-23T08:06:13;22.60;99.90
1806;DHT22;901;48.142;11.516;2022-07-23T08:08:40;22.60;99.90
1806;DHT22;901;48.142;11.516;2022-07-23T08:11:07;22.70;99.90
1806;DHT22;901;48.142;11.516;2022-07-23T08:13:34;22.70;99.90
1806;DHT22;901;48.142;11.516;2022-07-23T08:16:03;22.70;99.90
1806;DHT22;901;48.142;11.516;2022-07-23T08:18:30;22.70;99.90
1806;DHT22;901;48.142;11.516;2022-07-23T08:20:56;22.70;99.90
1806;DHT22;901;48.142;11.516;2022-07-23T08:23:23;22.80;99.90
1806;DHT22;901;48.142;11.516;2022-07-23T08:25:50;22.90;99.90
1806;DHT22;901;48.142;11.516;2022-07-23T08:28:17;23.10;99.90
1806;DHT22;901;48.142;11.516;2022-07-23T08:30:44;23.30;99.90
1806;DHT22;901;48.142;11.516;2022-07-23T08:33:14;23.50;99.90
1806;DHT22;901;48.142;11.516;2022-07-23T08:35:42;23.70;99.90
1806;DHT22;901;48.142;11.516;2022-07-23T08:38:13;23.90;99.90
1806;DHT22;901;48.142;11.516;2022-07-23T08:40:42;24.20;99.90
1806;DHT22;901;48.142;11.516;2022-07-23T08:43:11;24.50;99.90
1806;DHT22;901;48.142;11.516;2022-07-23T08:45:40;24.70;99.90
1806;DHT22;901;48.142;11.516;2022-07-23T08:48:08;25.00;99.90
1806;DHT22;901;48.142;11.516;2022-07-23T08:50:37;25.20;99.90
1806;DHT22;901;48.142;11.516;2022-07-23T08:53:06;25.40;99.90
1806;DHT22;901;48.142;11.516;2022-07-23T08:55:34;25.50;99.90
1806;DHT22;901;48.142;11.516;2022-07-23T08:58:01;25.60;99.90
1806;DHT22;901;48.142;11.516;2022-07-23T09:00:28;25.60;99.90
1806;DHT22;901;48.142;11.516;2022-07-23T09:02:55;25.80;99.90
1806;DHT22;901;48.142;11.516;2022-07-23T09:05:22;25.90;99.90
1806;DHT22;901;48.142;11.516;2022-07-23T09:08:08;25.70;99.90
1806;DHT22;901;48.142;11.516;2022-07-23T09:10:46;25.10;99.90
1806;DHT22;901;48.142;11.516;2022-07-23T09:13:29;25.00;99.90
1806;DHT22;901;48.142;11.516;2022-07-23T09:15:59;25.10;99.90
1806;DHT22;901;48.142;11.516;2022-07-23T09:18:31;25.20;99.90
1806;DHT22;901;48.142;11.516;2022-07-23T09:21:13;25.10;99.90
1806;DHT22;901;48.142;11.516;2022-07-23T09:23:43;25.10;99.90
1806;DHT22;901;48.142;11.516;2022-07-23T09:26:22;25.50;99.90
1806;DHT22;901;48.142;11.516;2022-07-23T09:28:54;25.90;99.90
1806;DHT22;901;48.142;11.516;2022-07-23T09:31:22;26.40;99.90
1806;DHT22;901;48.142;11.516;2022-07-23T09:33:49;26.90;99.90
1806;DHT22;901;48.142;11.516;2022-07-23T09:36:27;27.30;99.90
1806;DHT22;901;48.142;11.516;2022-07-23T09:38:56;27.50;99.90
1806;DHT22;901;48.142;11.516;2022-07-23T09:41:23;27.60;99.90
1806;DHT22;901;48.142;11.516;2022-07-23T09:43:56;27.60;99.90
1806;DHT22;901;48.142;11.516;2022-07-23T09:46:27;27.70;99.90
1806;DHT22;901;48.142;11.516;2022-07-23T09:48:55;27.90;99.90
1806;DHT22;901;48.142;11.516;2022-07-23T09:51:23;28.20;99.90
1806;DHT22;901;48.142;11.516;2022-07-23T09:54:04;28.50;99.90
1806;DHT22;901;48.142;11.516;2022-07-23T09:56:31;28.50;99.90
1806;DHT22;901;48.142;11.516;2022-07-23T09:59:00;28.70;99.90
1806;DHT22;901;48.142;11.516;2022-07-23T10:01:31;28.80;99.90
1806;DHT22;901;48.142;11.516;2022-07-23T10:03:59;28.80;99.90
1806;DHT22;901;48.142;11.516;2022-07-23T10:06:28;28.50;99.90
1806;DHT22;901;48.142;11.516;2022-07-23T10:08:56;28.20;99.90
1806;DHT22;901;48.142;11.516;2022-07-23T10:11:27;28.10;99.90
1806;DHT22;901;48.142;11.516;2022-07-23T10:13:55;28.00;99.90
1806;DHT22;901;48.142;11.516;2022-07-23T10:16:24;28.10;99.90
1806;DHT22;901;48.142;11.516;2022-07-23T10:18:52;28.40;99.90
1806;DHT22;901;48.142;11.516;2022-07-23T10:21:24;28.70;99.90
1806;DHT22;901;48.142;11.516;2022-07-23T10:24:03;29.00;99.90
1806;DHT22;901;48.142;11.516;2022-07-23T10:26:52;29.20;99.90
1806;DHT22;901;48.142;11.516;2022-07-23T10:29:34;29.20;99.90
1806;DHT22;901;48.142;11.516;2022-07-23T10:32:13;29.10;99.90
1806;DHT22;901;48.142;11.516;2022-07-23T10:34:50;28.60;99.90
1806;DHT22;901;48.142;11.516;2022-07-23T10:37:23;28.50;99.90
1806;DHT22;901;48.142;11.516;2022-07-23T10:40:09;28.40;99.90
1806;DHT22;901;48.142;11.516;2022-07-23T10:42:38;28.40;99.90
1806;DHT22;901;48.142;11.516;2022-07-23T10:45:26;28.60;99.90
1806;DHT22;901;48.142;11.516;2022-07-23T10:47:55;28.80;99.90
1806;DHT22;901;48.142;11.516;2022-07-23T10:50:23;29.00;99.90
1806;DHT22;901;48.142;11.516;2022-07-23T10:53:09;29.30;99.90
1806;DHT22;901;48.142;11.516;2022-07-23T10:55:43;29.70;99.90
1806;DHT22;901;48.142;11.516;2022-07-23T10:58:18;29.80;99.90
1806;DHT22;901;48.142;11.516;2022-07-23T11:00:45;29.80;99.90
1806;DHT22;901;48.142;11.516;2022-07-23T11:03:32;30.10;99.90
1806;DHT22;901;48.142;11.516;2022-07-23T11:06:01;30.50;99.90
1806;DHT22;901;48.142;11.516;2022-07-23T11:08:28;30.70;99.90
1806;DHT22;901;48.142;11.516;2022-07-23T11:11:08;30.70;99.90
1806;DHT22;901;48.142;11.516;2022-07-23T11:13:45;30.70;99.90
1806;DHT22;901;48.142;11.516;2022-07-23T11:16:20;30.80;99.90
1806;DHT22;901;48.142;11.516;2022-07-23T11:19:05;30.90;99.90
1806;DHT22;901;48.142;11.516;2022-07-23T11:21:46;31.20;99.90
1806;DHT22;901;48.142;11.516;2022-07-23T11:24:16;31.10;99.90
1806;DHT22;901;48.142;11.516;2022-07-23T11:29:44;30.90;99.90
1806;DHT22;901;48.142;11.516;2022-07-23T11:35:18;30.50;99.90
1806;DHT22;901;48.142;11.516;2022-07-23T11:37:46;30.30;99.90
1806;DHT22;901;48.142;11.516;2022-07-23T11:40:15;29.90;99.90
1806;DHT22;901;48.142;11.516;2022-07-23T11:42:52;29.60;99.90
1806;DHT22;901;48.142;11.516;2022-07-23T11:45:21;29.50;99.90
1806;DHT22;901;48.142;11.516;2022-07-23T11:47:49;29.40;99.90
1806;DHT22;901;48.142;11.516;2022-07-23T11:50:15;29.30;99.90
1806;DHT22;901;48.142;11.516;2022-07-23T11:52:42;29.20;99.90
1806;DHT22;901;48.142;11.516;2022-07-23T11:55:11;29.20;99.90
1806;DHT22;901;48.142;11.516;2022-07-23T11:57:39;29.20;99.90
1806;DHT22;901;48.142;11.516;2022-07-23T12:00:09;29.20;99.90
1806;DHT22;901;48.142;11.516;2022-07-23T12:02:38;29.20;99.90
1806;DHT22;901;48.142;11.516;2022-07-23T12:05:06;29.10;99.90
1806;DHT22;901;48.142;11.516;2022-07-23T12:07:36;29.10;99.90
1806;DHT22;901;48.142;11.516;2022-07-23T12:10:08;29.10;99.90
1806;DHT22;901;48.142;11.516;2022-07-23T12:12:36;29.00;99.90
1806;DHT22;901;48.142;11.516;2022-07-23T12:15:05;28.90;99.90
1806;DHT22;901;48.142;11.516;2022-07-23T12:17:34;28.90;99.90
1806;DHT22;901;48.142;11.516;2022-07-23T12:20:03;28.70;99.90
1806;DHT22;901;48.142;11.516;2022-07-23T12:22:35;28.60;99.90
1806;DHT22;901;48.142;11.516;2022-07-23T12:25:05;28.70;99.90
1806;DHT22;901;48.142;11.516;2022-07-23T12:27:32;28.80;99.90
1806;DHT22;901;48.142;11.516;2022-07-23T12:29:59;28.90;99.90
1806;DHT22;901;48.142;11.516;2022-07-23T12:32:28;28.90;99.90
1806;DHT22;901;48.142;11.516;2022-07-23T12:35:08;28.90;99.90
1806;DHT22;901;48.142;11.516;2022-07-23T12:37:37;28.90;99.90
1806;DHT22;901;48.142;11.516;2022-07-23T12:40:25;28.80;99.90
1806;DHT22;901;48.142;11.516;2022-07-23T12:42:54;28.70;99.90
1806;DHT22;901;48.142;11.516;2022-07-23T12:45:22;28.70;99.90
1806;DHT22;901;48.142;11.516;2022-07-23T12:47:58;28.70;99.90
1806;DHT22;901;48.142;11.516;2022-07-23T12:50:38;28.60;99.90
1806;DHT22;901;48.142;11.516;2022-07-23T12:53:08;28.70;99.90
1806;DHT22;901;48.142;11.516;2022-07-23T12:55:36;28.70;99.90
1806;DHT22;901;48.142;11.516;2022-07-23T12:58:05;28.70;99.90
1806;DHT22;901;48.142;11.516;2022-07-23T13:03:21;28.90;99.90
1806;DHT22;901;48.142;11.516;2022-07-23T13:05:49;29.00;99.90
1806;DHT22;901;48.142;11.516;2022-07-23T13:08:16;28.90;99.90
1806;DHT22;901;48.142;11.516;2022-07-23T13:10:43;28.70;99.90
1806;DHT22;901;48.142;11.516;2022-07-23T13:13:12;28.60;99.90
1806;DHT22;901;48.142;11.516;2022-07-23T13:15:39;28.50;99.90
1806;DHT22;901;48.142;11.516;2022-07-23T13:18:06;28.60;99.90
1806;DHT22;901;48.142;11.516;2022-07-23T13:20:33;28.60;99.90
1806;DHT22;901;48.142;11.516;2022-07-23T13:23:01;28.60;99.90
1806;DHT22;901;48.142;11.516;2022-07-23T13:25:28;28.60;99.90
1806;DHT22;901;48.142;11.516;2022-07-23T13:27:55;28.60;99.90
1806;DHT22;901;48.142;11.516;2022-07-23T13:30:22;28.50;99.90
1806;DHT22;901;48.142;11.516;2022-07-23T13:32:49;28.50;99.90
1806;DHT22;901;48.142;11.516;2022-07-23T13:35:16;28.50;99.90
1806;DHT22;901;48.142;11.516;2022-07-23T13:37:43;28.40;99.90
1806;DHT22;901;48.142;11.516;2022-07-23T13:40:11;28.60;99.90
1806;DHT22;901;48.142;11.516;2022-07-23T13:42:38;28.60;99.90
1806;DHT22;901;48.142;11.516;2022-07-23T13:45:06;28.80;99.90
1806;DHT22;901;48.142;11.516;2022-07-23T13:47:33;29.00;99.90
1806;DHT22;901;48.142;11.516;2022-07-23T13:50:00;29.30;99.90
1806;DHT22;901;48.142;11.516;2022-07-23T13:52:27;29.40;99.90
1806;DHT22;901;48.142;11.516;2022-07-23T13:54:54;29.60;99.90
1806;DHT22;901;48.142;11.516;2022-07-23T13:57:22;29.40;99.90
1806;DHT22;901;48.142;11.516;2022-07-23T13:59:49;29.40;99.90
1806;DHT22;901;48.142;11.516;2022-07-23T14:02:17;29.40;99.90
1806;DHT22;901;48.142;11.516;2022-07-23T14:04:44;29.40;99.90
1806;DHT22;901;48.142;11.516;2022-07-23T14:07:11;29.30;99.90
1806;DHT22;901;48.142;11.516;2022-07-23T14:09:38;29.10;99.90
1806;DHT22;901;48.142;11.516;2022-07-23T14:12:06;28.80;99.90
1806;DHT22;901;48.142;11.516;2022-07-23T14:14:34;28.60;99.90
1806;DHT22;901;48.142;11.516;2022-07-23T14:17:02;28.50;99.90
1806;DHT22;901;48.142;11.516;2022-07-23T14:19:29;28.40;99.90
1806;DHT22;901;48.142;11.516;2022-07-23T14:21:56;28.30;99.90
1806;DHT22;901;48.142;11.516;2022-07-23T14:24:22;28.30;99.90
1806;DHT22;901;48.142;11.516;2022-07-23T14:26:49;28.40;99.90
1806;DHT22;901;48.142;11.516;2022-07-23T14:29:16;28.40;99.90
1806;DHT22;901;48.142;11.516;2022-07-23T14:31:44;28.40;99.90
1806;DHT22;901;48.142;11.516;2022-07-23T14:34:11;28.40;99.90
1806;DHT22;901;48.142;11.516;2022-07-23T14:36:38;28.70;99.90
1806;DHT22;901;48.142;11.516;2022-07-23T14:39:05;28.90;99.90
1806;DHT22;901;48.142;11.516;2022-07-23T14:41:34;29.00;99.90
1806;DHT22;901;48.142;11.516;2022-07-23T14:44:01;29.30;99.90
1806;DHT22;901;48.142;11.516;2022-07-23T14:46:28;29.50;99.90
1806;DHT22;901;48.142;11.516;2022-07-23T14:48:56;29.50;99.90
1806;DHT22;901;48.142;11.516;2022-07-23T14:51:23;29.60;99.90
1806;DHT22;901;48.142;11.516;2022-07-23T14:53:50;29.80;99.90
1806;DHT22;901;48.142;11.516;2022-07-23T14:56:17;29.80;99.90
1806;DHT22;901;48.142;11.516;2022-07-23T14:58:44;29.70;99.90
1806;DHT22;901;48.142;11.516;2022-07-23T15:01:11;29.70;99.90
1806;DHT22;901;48.142;11.516;2022-07-23T15:03:37;29.40;99.90
1806;DHT22;901;48.142;11.516;2022-07-23T15:06:06;29.40;99.90
1806;DHT22;901;48.142;11.516;2022-07-23T15:08:33;29.50;99.90
1806;DHT22;901;48.142;11.516;2022-07-23T15:11:00;29.60;99.90
1806;DHT22;901;48.142;11.516;2022-07-23T15:13:27;29.40;99.90
1806;DHT22;901;48.142;11.516;2022-07-23T15:15:54;29.60;99.90
1806;DHT22;901;48.142;11.516;2022-07-23T15:18:20;29.80;99.90
1806;DHT22;901;48.142;11.516;2022-07-23T15:20:47;29.90;99.90
1806;DHT22;901;48.142;11.516;2022-07-23T15:23:16;30.10;99.90
1806;DHT22;901;48.142;11.516;2022-07-23T15:25:42;30.10;99.90
1806;DHT22;901;48.142;11.516;2022-07-23T15:28:09;30.00;99.90
1806;DHT22;901;48.142;11.516;2022-07-23T15:30:36;30.00;99.90
1806;DHT22;901;48.142;11.516;2022-07-23T15:33:03;29.90;99.90
1806;DHT22;901;48.142;11.516;2022-07-23T15:35:31;29.90;99.90
1806;DHT22;901;48.142;11.516;2022-07-23T15:37:58;30.00;99.90
1806;DHT22;901;48.142;11.516;2022-07-23T15:40:26;30.00;99.90
1806;DHT22;901;48.142;11.516;2022-07-23T15:42:53;29.90;99.90
1806;DHT22;901;48.142;11.516;2022-07-23T15:45:20;29.90;99.90
1806;DHT22;901;48.142;11.516;2022-07-23T15:47:48;29.90;99.90
1806;DHT22;901;48.142;11.516;2022-07-23T15:50:15;29.90;99.90
1806;DHT22;901;48.142;11.516;2022-07-23T15:52:42;29.90;99.90
1806;DHT22;901;48.142;11.516;2022-07-23T15:55:09;29.40;99.90
1806;DHT22;901;48.142;11.516;2022-07-23T15:57:37;29.30;99.90
1806;DHT22;901;48.142;11.516;2022-07-23T16:00:06;29.40;99.90
1806;DHT22;901;48.142;11.516;2022-07-23T16:02:34;29.30;99.90
1806;DHT22;901;48.142;11.516;2022-07-23T16:05:01;29.30;99.90
1806;DHT22;901;48.142;11.516;2022-07-23T16:07:28;29.10;99.90
1806;DHT22;901;48.142;11.516;2022-07-23T16:09:55;28.90;99.90
1806;DHT22;901;48.142;11.516;2022-07-23T16:12:22;28.70;99.90
1806;DHT22;901;48.142;11.516;2022-07-23T16:14:51;28.60;99.90
1806;DHT22;901;48.142;11.516;2022-07-23T16:17:17;28.40;99.90